createdAt,value
2022-08-09T00:00:12.026Z,97525.56
2022-08-09T00:02:43.010Z,97523.03
2022-08-09T00:06:15.774Z,97523.28
2022-08-09T00:08:09.956Z,97526.41
2022-08-09T00:10:41.100Z,97522.38
2022-08-09T00:13:16.677Z,97513.44
2022-08-09T00:15:58.842Z,97528.63
2022-08-09T00:18:29.907Z,97524.69
2022-08-09T00:20:58.793Z,97513.22
2022-08-09T00:23:57.603Z,97501.16
2022-08-09T00:26:15.089Z,97508.91
2022-08-09T00:28:42.455Z,97510.72
2022-08-09T00:31:57.191Z,97515.38
2022-08-09T00:34:10.965Z,97512.84
2022-08-09T00:36:40.115Z,97512.84
2022-08-09T00:39:16.999Z,97515.03
2022-08-09T00:44:13.720Z,97509.19
2022-08-09T00:44:47.090Z,97514.06
2022-08-09T00:47:15.596Z,97511.69
2022-08-09T00:49:54.562Z,97504.44
2022-08-09T00:52:30.653Z,97511.34
2022-08-09T00:55:01.201Z,97509.06
2022-08-09T00:57:35.356Z,97515.75
2022-08-09T01:00:21.219Z,97508.00
2022-08-09T01:02:54.193Z,97513.50
2022-08-09T01:05:50.741Z,97508.94
2022-08-09T01:08:26.795Z,97505.63
2022-08-09T01:11:09.822Z,97517.88
2022-08-09T01:13:58.735Z,97517.31
2022-08-09T01:16:33.443Z,97519.22
2022-08-09T01:19:16.941Z,97513.00
2022-08-09T01:22:16.700Z,97517.78
2022-08-09T01:24:54.548Z,97526.72
2022-08-09T01:27:27.611Z,97528.88
2022-08-09T01:30:00.611Z,97516.91
2022-08-09T01:32:46.043Z,97526.13
2022-08-09T01:35:37.253Z,97526.59
2022-08-09T01:38:15.315Z,97527.19
2022-08-09T01:40:52.857Z,97530.91
2022-08-09T01:43:51.309Z,97532.91
2022-08-09T01:46:25.100Z,97533.13
2022-08-09T01:48:57.447Z,97533.50
2022-08-09T01:51:32.113Z,97547.81
2022-08-09T01:54:04.153Z,97533.94
2022-08-09T01:56:35.687Z,97535.75
2022-08-09T01:59:09.795Z,97541.13
2022-08-09T02:01:59.791Z,97548.97
2022-08-09T02:04:29.275Z,97539.44
2022-08-09T02:07:02.854Z,97535.97
2022-08-09T02:09:42.589Z,97531.56
2022-08-09T02:12:18.058Z,97539.44
2022-08-09T02:14:53.452Z,97533.72
2022-08-09T02:18:01.536Z,97534.66
2022-08-09T02:20:15.925Z,97528.69
2022-08-09T02:23:00.024Z,97515.44
2022-08-09T02:25:31.263Z,97517.72
2022-08-09T02:28:17.794Z,97515.53
2022-08-09T02:30:58.701Z,97517.44
2022-08-09T02:33:38.427Z,97523.28
2022-08-09T02:36:22.561Z,97525.06
2022-08-09T02:38:58.690Z,97511.47
2022-08-09T02:41:38.459Z,97514.56
2022-08-09T02:44:13.828Z,97521.34
2022-08-09T02:47:04.227Z,97515.81
2022-08-09T02:49:40.909Z,97507.03
2022-08-09T02:52:13.238Z,97515.59
2022-08-09T02:54:54.401Z,97512.72
2022-08-09T02:57:25.153Z,97516.50
2022-08-09T03:00:24.802Z,97502.69
2022-08-09T03:02:59.721Z,97501.97
2022-08-09T03:05:29.309Z,97500.38
2022-08-09T03:07:57.687Z,97495.38
2022-08-09T03:10:26.382Z,97489.63
2022-08-09T03:12:54.815Z,97494.34
2022-08-09T03:15:23.654Z,97494.59
2022-08-09T03:17:58.655Z,97499.44
2022-08-09T03:20:29.475Z,97501.25
2022-08-09T03:23:14.755Z,97485.25
2022-08-09T03:25:57.897Z,97496.44
2022-08-09T03:28:27.330Z,97499.06
2022-08-09T03:30:56.357Z,97495.84
2022-08-09T03:33:53.538Z,97500.06
2022-08-09T03:36:16.385Z,97501.31
2022-08-09T03:38:45.104Z,97504.91
2022-08-09T03:41:15.449Z,97499.25
2022-08-09T03:43:51.630Z,97501.28
2022-08-09T03:46:32.794Z,97495.53
2022-08-09T03:49:03.782Z,97496.34
2022-08-09T03:51:56.819Z,97489.44
2022-08-09T03:54:29.222Z,97501.22
2022-08-09T03:56:59.389Z,97492.00
2022-08-09T03:59:42.943Z,97492.81
2022-08-09T04:02:15.377Z,97499.13
2022-08-09T04:04:58.708Z,97497.44
2022-08-09T04:07:47.084Z,97495.75
2022-08-09T04:10:20.273Z,97493.47
2022-08-09T04:12:52.342Z,97487.72
2022-08-09T04:15:40.507Z,97491.81
2022-08-09T04:18:16.523Z,97489.91
2022-08-09T04:20:50.413Z,97490.84
2022-08-09T04:23:24.635Z,97485.41
2022-08-09T04:25:54.165Z,97492.09
2022-08-09T04:28:33.940Z,97489.38
2022-08-09T04:31:09.813Z,97484.63
2022-08-09T04:33:51.485Z,97480.97
2022-08-09T04:36:29.173Z,97486.94
2022-08-09T04:38:57.393Z,97481.38
2022-08-09T04:41:32.393Z,97493.75
2022-08-09T04:44:07.042Z,97485.81
2022-08-09T04:46:59.421Z,97497.13
2022-08-09T04:49:40.914Z,97501.22
2022-08-09T04:52:22.016Z,97506.34
2022-08-09T04:54:54.213Z,97495.53
2022-08-09T04:57:24.447Z,97497.06
2022-08-09T04:59:54.451Z,97499.38
2022-08-09T05:02:22.940Z,97505.69
2022-08-09T05:04:55.667Z,97495.69
2022-08-09T05:07:29.136Z,97497.88
2022-08-09T05:10:01.180Z,97497.44
2022-08-09T05:12:31.269Z,97500.34
2022-08-09T05:15:01.314Z,97497.50
2022-08-09T05:18:38.648Z,97496.34
2022-08-09T05:20:20.264Z,97496.50
2022-08-09T05:23:55.605Z,97495.22
2022-08-09T05:25:41.682Z,97494.75
2022-08-09T05:28:08.767Z,97499.66
2022-08-09T05:30:38.144Z,97489.69
2022-08-09T05:33:10.889Z,97502.13
2022-08-09T05:35:46.945Z,97492.22
2022-08-09T05:38:21.672Z,97494.50
2022-08-09T05:40:50.823Z,97491.44
2022-08-09T05:43:18.631Z,97493.59
2022-08-09T05:45:56.738Z,97487.66
2022-08-09T05:48:32.723Z,97493.25
2022-08-09T05:51:41.546Z,97487.31
2022-08-09T05:53:56.890Z,97484.97
2022-08-09T05:56:26.384Z,97486.13
2022-08-09T05:58:57.530Z,97479.34
2022-08-09T06:01:27.485Z,97485.44
2022-08-09T06:04:01.717Z,97477.81
2022-08-09T06:06:33.741Z,97488.53
2022-08-09T06:09:02.928Z,97481.75
2022-08-09T06:11:40.875Z,97485.44
2022-08-09T06:14:25.484Z,97490.69
2022-08-09T06:16:52.799Z,97492.81
2022-08-09T06:19:20.841Z,97484.44
2022-08-09T06:21:51.512Z,97487.88
2022-08-09T06:24:27.352Z,97481.28
2022-08-09T06:26:54.799Z,97491.06
2022-08-09T06:29:22.832Z,97490.69
2022-08-09T06:32:17.216Z,97493.38
2022-08-09T06:34:40.672Z,97486.91
2022-08-09T06:37:09.989Z,97489.03
2022-08-09T06:39:59.963Z,97486.47
2022-08-09T06:42:30.940Z,97505.34
2022-08-09T06:45:04.599Z,97493.13
2022-08-09T06:48:00.909Z,97491.28
2022-08-09T06:50:31.106Z,97481.63
2022-08-09T06:52:59.492Z,97491.38
2022-08-09T06:55:28.302Z,97495.03
2022-08-09T06:58:02.885Z,97497.59
2022-08-09T07:00:55.963Z,97499.56
2022-08-09T07:03:20.258Z,97493.91
2022-08-09T07:06:04.844Z,97501.28
2022-08-09T07:08:34.233Z,97500.47
2022-08-09T07:11:03.712Z,97505.22
2022-08-09T07:13:31.040Z,97501.78
2022-08-09T07:16:42.832Z,97493.94
2022-08-09T07:19:00.713Z,97498.00
2022-08-09T07:21:31.010Z,97495.91
2022-08-09T07:24:12.864Z,97493.72
2022-08-09T07:26:41.856Z,97492.19
2022-08-09T07:29:24.322Z,97494.41
2022-08-09T07:31:55.157Z,97496.66
2022-08-09T07:34:27.551Z,97503.88
2022-08-09T07:37:04.642Z,97499.03
2022-08-09T07:39:42.107Z,97502.22
2022-08-09T07:42:35.189Z,97493.75
2022-08-09T07:45:22.632Z,97502.22
2022-08-09T07:48:01.712Z,97502.09
2022-08-09T07:50:36.744Z,97504.72
2022-08-09T07:56:03.476Z,97513.56
2022-08-09T07:58:36.966Z,97502.72
2022-08-09T08:01:06.564Z,97501.88
2022-08-09T08:03:44.568Z,97502.53
2022-08-09T08:06:15.313Z,97505.84
2022-08-09T08:09:03.992Z,97506.34
2022-08-09T08:12:24.840Z,97502.97
2022-08-09T08:14:25.782Z,97506.75
2022-08-09T08:17:07.816Z,97498.22
2022-08-09T08:19:39.383Z,97503.44
2022-08-09T08:22:08.135Z,97499.53
2022-08-09T08:24:40.594Z,97508.09
2022-08-09T08:27:17.066Z,97502.91
2022-08-09T08:29:50.135Z,97504.97
2022-08-09T08:32:29.201Z,97505.47
2022-08-09T08:34:58.892Z,97499.88
2022-08-09T08:37:41.549Z,97501.69
2022-08-09T08:40:15.877Z,97494.81
2022-08-09T08:42:47.183Z,97495.19
2022-08-09T08:45:36.837Z,97497.78
2022-08-09T08:48:06.108Z,97498.56
2022-08-09T08:50:34.003Z,97492.66
2022-08-09T08:53:04.052Z,97498.34
2022-08-09T08:55:33.063Z,97491.88
2022-08-09T08:58:00.952Z,97489.03
2022-08-09T09:00:35.025Z,97491.41
2022-08-09T09:03:08.824Z,97499.75
2022-08-09T09:06:01.062Z,97503.63
2022-08-09T09:08:32.124Z,97494.59
2022-08-09T09:11:08.656Z,97502.72
2022-08-09T09:13:56.234Z,97501.44
2022-08-09T09:16:34.137Z,97500.97
2022-08-09T09:22:11.764Z,97497.19
2022-08-09T09:24:43.672Z,97487.41
2022-08-09T09:28:03.271Z,97490.94
2022-08-09T09:30:22.719Z,97497.25
2022-08-09T09:33:15.779Z,97500.94
2022-08-09T09:36:01.744Z,97493.50
2022-08-09T09:38:42.821Z,97482.63
2022-08-09T09:41:12.616Z,97486.78
2022-08-09T09:43:41.504Z,97489.59
2022-08-09T09:46:42.292Z,97489.97
2022-08-09T09:49:31.727Z,97489.44
2022-08-09T09:52:33.689Z,97490.63
2022-08-09T09:55:16.141Z,97498.41
2022-08-09T09:58:03.742Z,97490.97
2022-08-09T10:00:33.713Z,97482.50
2022-08-09T10:03:11.733Z,97486.66
2022-08-09T10:06:16.854Z,97496.75
2022-08-09T10:12:04.601Z,97491.47
2022-08-09T10:14:30.556Z,97480.00
2022-08-09T10:17:40.003Z,97475.97
2022-08-09T10:19:57.704Z,97469.97
2022-08-09T10:25:21.054Z,97479.03
2022-08-09T10:27:56.994Z,97469.25
2022-08-09T10:32:21.049Z,97466.25
2022-08-09T10:34:04.475Z,97471.22
2022-08-09T10:36:05.411Z,97468.53
2022-08-09T10:41:23.438Z,97453.63
2022-08-09T10:44:01.136Z,97459.38
2022-08-09T10:48:13.212Z,97466.66
2022-08-09T10:50:09.921Z,97460.44
2022-08-09T10:55:58.438Z,97452.88
2022-08-09T10:58:37.292Z,97454.34
2022-08-09T11:03:15.493Z,97448.31
2022-08-09T11:04:19.673Z,97455.41
2022-08-09T11:07:54.946Z,97454.00
2022-08-09T11:10:38.899Z,97456.50
2022-08-09T11:13:54.158Z,97446.16
2022-08-09T11:16:37.524Z,97444.59
2022-08-09T11:19:11.423Z,97455.88
2022-08-09T11:22:05.114Z,97449.19
2022-08-09T11:25:08.110Z,97448.56
2022-08-09T11:28:04.669Z,97442.19
2022-08-09T11:30:37.707Z,97443.50
2022-08-09T11:33:13.599Z,97443.59
2022-08-09T11:35:52.136Z,97443.41
2022-08-09T11:38:32.733Z,97439.19
2022-08-09T11:41:25.146Z,97425.34
2022-08-09T11:44:06.386Z,97432.69
2022-08-09T11:46:56.228Z,97427.69
2022-08-09T11:53:57.972Z,97430.06
2022-08-09T11:56:42.034Z,97423.59
2022-08-09T11:59:33.604Z,97416.50
2022-08-09T12:02:34.294Z,97421.47
2022-08-09T12:05:03.092Z,97413.28
2022-08-09T12:07:41.309Z,97423.38
2022-08-09T12:10:31.757Z,97422.19
2022-08-09T12:15:50.093Z,97407.44
2022-08-09T12:18:26.212Z,97410.03
2022-08-09T12:23:58.068Z,97408.16
2022-08-09T12:29:00.150Z,97398.75
2022-08-09T12:29:43.875Z,97408.47
2022-08-09T12:32:27.173Z,97398.56
2022-08-09T12:35:03.149Z,97394.50
2022-08-09T12:37:33.214Z,97405.50
2022-08-09T12:40:20.898Z,97383.44
2022-08-09T12:42:50.583Z,97385.97
2022-08-09T12:45:32.387Z,97385.81
2022-08-09T12:48:05.600Z,97384.25
2022-08-09T12:50:41.235Z,97386.94
2022-08-09T12:56:37.010Z,97374.38
2022-08-09T12:59:23.582Z,97385.75
2022-08-09T13:02:15.189Z,97375.13
2022-08-09T13:05:02.462Z,97378.09
2022-08-09T13:07:51.195Z,97368.66
2022-08-09T13:10:22.110Z,97371.13
2022-08-09T13:13:10.299Z,97379.38
2022-08-09T13:15:51.718Z,97374.69
2022-08-09T13:18:21.066Z,97371.41
2022-08-09T13:22:33.122Z,97383.00
2022-08-09T13:24:42.544Z,97370.44
2022-08-09T13:26:37.116Z,97366.19
2022-08-09T13:30:02.848Z,97369.09
2022-08-09T13:32:27.603Z,97369.47
2022-08-09T13:34:56.810Z,97372.19
2022-08-09T13:37:50.770Z,97363.59
2022-08-09T13:41:50.813Z,97365.47
2022-08-09T13:43:05.023Z,97365.47
2022-08-09T13:46:44.587Z,97366.06
2022-08-09T13:48:25.068Z,97362.78
2022-08-09T13:50:57.264Z,97357.03
2022-08-09T13:53:28.522Z,97357.44
2022-08-09T13:56:12.446Z,97358.25
2022-08-09T13:58:40.175Z,97357.88
2022-08-09T14:01:07.862Z,97361.59
2022-08-09T14:04:02.713Z,97362.63
2022-08-09T14:06:31.653Z,97359.34
2022-08-09T14:08:59.535Z,97361.59
2022-08-09T14:11:29.082Z,97360.59
2022-08-09T14:14:23.613Z,97364.94
2022-08-09T14:18:16.573Z,97358.31
2022-08-09T14:20:30.867Z,97366.34
2022-08-09T14:22:59.038Z,97349.63
2022-08-09T14:25:44.526Z,97349.25
2022-08-09T14:28:21.128Z,97358.31
2022-08-09T14:30:48.409Z,97356.66
2022-08-09T14:33:20.731Z,97362.41
2022-08-09T14:35:53.283Z,97350.91
2022-08-09T14:38:20.818Z,97360.59
2022-08-09T14:41:04.549Z,97361.81
2022-08-09T14:43:47.820Z,97368.81
2022-08-09T14:46:56.645Z,97358.72
2022-08-09T14:49:23.582Z,97369.44
2022-08-09T14:54:57.975Z,97361.59
2022-08-09T14:57:25.873Z,97374.16
2022-08-09T15:00:01.164Z,97367.28
2022-08-09T15:02:40.965Z,97372.59
2022-08-09T15:05:10.567Z,97377.22
2022-08-09T15:07:40.429Z,97364.06
2022-08-09T15:10:16.316Z,97363.41
2022-08-09T15:12:45.335Z,97366.47
2022-08-09T15:15:18.135Z,97362.16
2022-08-09T15:17:51.811Z,97366.47
2022-08-09T15:21:54.981Z,97361.09
2022-08-09T15:24:01.904Z,97355.34
2022-08-09T15:25:56.630Z,97370.69
2022-08-09T15:28:28.105Z,97377.69
2022-08-09T15:31:10.170Z,97368.84
2022-08-09T15:34:27.310Z,97359.97
2022-08-09T15:36:30.161Z,97370.56
2022-08-09T15:38:57.983Z,97360.78
2022-08-09T15:41:32.180Z,97372.84
2022-08-09T15:44:02.061Z,97368.09
2022-08-09T15:46:35.167Z,97363.91
2022-08-09T15:49:22.778Z,97368.38
2022-08-09T15:52:02.785Z,97372.81
2022-08-09T15:54:42.993Z,97371.56
2022-08-09T15:57:14.179Z,97369.84
2022-08-09T15:59:55.459Z,97363.06
2022-08-09T16:02:27.531Z,97366.09
2022-08-09T16:04:56.201Z,97379.38
2022-08-09T16:07:23.750Z,97376.91
2022-08-09T16:10:02.337Z,97363.94
2022-08-09T16:12:35.813Z,97362.75
2022-08-09T16:16:04.392Z,97371.34
2022-08-09T16:18:01.834Z,97363.59
2022-08-09T16:20:30.859Z,97364.34
2022-08-09T16:22:58.370Z,97366.41
2022-08-09T16:25:40.558Z,97355.72
2022-08-09T16:28:12.186Z,97354.44
2022-08-09T16:30:44.595Z,97356.03
2022-08-09T16:33:15.929Z,97354.03
2022-08-09T16:35:57.024Z,97354.88
2022-08-09T16:38:27.548Z,97364.59
2022-08-09T16:40:57.285Z,97355.34
2022-08-09T16:43:26.698Z,97341.72
2022-08-09T16:45:55.901Z,97366.72
2022-08-09T16:48:42.504Z,97379.91
2022-08-09T16:51:14.108Z,97372.72
2022-08-09T16:56:48.914Z,97374.41
2022-08-09T16:59:20.132Z,97372.78
2022-08-09T17:01:51.279Z,97373.16
2022-08-09T17:04:28.457Z,97376.19
2022-08-09T17:08:40.653Z,97371.59
2022-08-09T17:09:47.250Z,97371.28
2022-08-09T17:12:15.283Z,97383.53
2022-08-09T17:14:47.673Z,97382.78
2022-08-09T17:17:26.256Z,97380.47
2022-08-09T17:20:33.066Z,97393.53
2022-08-09T17:22:52.868Z,97382.78
2022-08-09T17:25:21.995Z,97390.09
2022-08-09T17:27:54.007Z,97400.28
2022-08-09T17:30:25.929Z,97397.00
2022-08-09T17:32:55.183Z,97395.69
2022-08-09T17:35:32.032Z,97411.66
2022-08-09T17:38:11.944Z,97402.00
2022-08-09T17:40:42.189Z,97402.69
2022-08-09T17:43:34.379Z,97412.78
2022-08-09T17:46:06.281Z,97423.97
2022-08-09T17:48:38.693Z,97422.38
2022-08-09T17:51:18.709Z,97428.56
2022-08-09T17:53:52.845Z,97428.25
2022-08-09T17:56:28.955Z,97431.28
2022-08-09T17:59:03.021Z,97439.44
2022-08-09T18:02:03.682Z,97444.50
2022-08-09T18:04:19.368Z,97449.03
2022-08-09T18:06:55.285Z,97467.34
2022-08-09T18:09:24.448Z,97463.88
2022-08-09T18:12:14.587Z,97462.69
2022-08-09T18:14:53.872Z,97469.06
2022-08-09T18:17:27.687Z,97472.22
2022-08-09T18:20:58.836Z,97472.09
2022-08-09T18:23:05.609Z,97473.94
2022-08-09T18:25:49.999Z,97478.44
2022-08-09T18:30:38.508Z,97485.97
2022-08-09T18:31:09.731Z,97498.91
2022-08-09T18:33:37.643Z,97490.63
2022-08-09T18:36:14.503Z,97504.72
2022-08-09T18:39:00.989Z,97504.41
2022-08-09T18:41:34.991Z,97514.34
2022-08-09T18:44:12.962Z,97524.56
2022-08-09T18:46:50.004Z,97524.31
2022-08-09T18:49:32.203Z,97531.94
2022-08-09T18:52:11.513Z,97534.66
2022-08-09T18:54:49.722Z,97540.25
2022-08-09T18:57:23.130Z,97547.78
2022-08-09T18:59:57.360Z,97551.53
2022-08-09T19:02:32.111Z,97555.41
2022-08-09T19:05:04.014Z,97550.38
2022-08-09T19:08:04.741Z,97550.47
2022-08-09T19:10:36.977Z,97553.69
2022-08-09T19:13:20.576Z,97566.22
2022-08-09T19:15:51.703Z,97561.00
2022-08-09T19:18:33.975Z,97561.72
2022-08-09T19:21:09.106Z,97569.25
2022-08-09T19:24:32.046Z,97571.94
2022-08-09T19:26:29.411Z,97575.63
2022-08-09T19:29:01.742Z,97578.34
2022-08-09T19:31:45.242Z,97577.84
2022-08-09T19:34:21.538Z,97571.94
2022-08-09T19:36:52.714Z,97590.75
2022-08-09T19:39:42.900Z,97577.41
2022-08-09T19:42:15.161Z,97582.69
2022-08-09T19:44:49.271Z,97586.50
2022-08-09T19:47:22.924Z,97585.97
2022-08-09T19:50:06.932Z,97590.44
2022-08-09T19:52:37.069Z,97589.34
2022-08-09T19:55:17.317Z,97593.38
2022-08-09T19:57:48.854Z,97583.63
2022-08-09T20:00:18.234Z,97595.91
2022-08-09T20:04:23.944Z,97593.41
2022-08-09T20:05:46.107Z,97584.09
2022-08-09T20:08:16.187Z,97586.34
2022-08-09T20:10:53.233Z,97585.25
2022-08-09T20:13:23.557Z,97585.00
2022-08-09T20:16:33.584Z,97592.91
2022-08-09T20:19:04.051Z,97600.28
2022-08-09T20:21:40.713Z,97600.00
2022-08-09T20:24:19.369Z,97593.47
2022-08-09T20:27:00.207Z,97591.00
2022-08-09T20:29:36.994Z,97583.31
2022-08-09T20:32:31.258Z,97576.94
2022-08-09T20:34:55.753Z,97577.50
2022-08-09T20:38:22.542Z,97579.97
2022-08-09T20:40:26.995Z,97588.59
2022-08-09T20:42:59.852Z,97578.88
2022-08-09T20:46:01.507Z,97587.19
2022-08-09T20:48:33.245Z,97587.75
2022-08-09T20:51:02.979Z,97590.09
2022-08-09T20:53:36.770Z,97579.81
2022-08-09T20:56:08.778Z,97596.06
2022-08-09T20:58:38.027Z,97587.59
2022-08-09T21:01:33.291Z,97592.97
2022-08-09T21:05:48.148Z,97586.84
2022-08-09T21:06:49.483Z,97591.81
2022-08-09T21:09:38.135Z,97585.44
2022-08-09T21:14:40.646Z,97598.56
2022-08-09T21:18:22.064Z,97592.59
2022-08-09T21:20:17.721Z,97600.75
2022-08-09T21:22:54.134Z,97595.06
2022-08-09T21:25:38.169Z,97594.50
2022-08-09T21:28:12.289Z,97593.47
2022-08-09T21:30:43.460Z,97593.72
2022-08-09T21:33:16.024Z,97596.88
2022-08-09T21:35:51.183Z,97595.72
2022-08-09T21:38:30.812Z,97593.88
2022-08-09T21:40:59.393Z,97597.75
2022-08-09T21:43:46.620Z,97584.38
2022-08-09T21:46:15.542Z,97592.78
2022-08-09T21:48:49.227Z,97587.09
2022-08-09T21:51:24.522Z,97590.09
2022-08-09T21:54:04.224Z,97598.94
2022-08-09T21:56:43.116Z,97593.50
2022-08-09T21:59:16.082Z,97589.59
2022-08-09T22:01:58.509Z,97585.94
2022-08-09T22:04:57.379Z,97582.72
2022-08-09T22:07:23.316Z,97589.06
2022-08-09T22:10:02.956Z,97589.56
2022-08-09T22:12:34.840Z,97590.66
2022-08-09T22:15:03.159Z,97594.50
2022-08-09T22:17:32.114Z,97594.13
2022-08-09T22:20:01.557Z,97595.34
2022-08-09T22:22:29.948Z,97598.34
2022-08-09T22:26:08.309Z,97598.34
2022-08-09T22:27:45.061Z,97598.97
2022-08-09T22:30:13.322Z,97595.41
2022-08-09T22:32:42.430Z,97589.81
2022-08-09T22:36:01.492Z,97597.25
2022-08-09T22:38:06.797Z,97590.56
2022-08-09T22:40:36.103Z,97594.38
2022-08-09T22:43:16.051Z,97593.22
2022-08-09T22:48:10.230Z,97588.31
2022-08-09T22:48:34.978Z,97594.91
2022-08-09T22:51:10.590Z,97576.97
2022-08-09T22:53:58.690Z,97587.50
2022-08-09T22:56:30.564Z,97590.47
2022-08-09T22:59:05.402Z,97596.22
2022-08-09T23:01:34.242Z,97589.53
2022-08-09T23:04:03.554Z,97584.38
2022-08-09T23:06:36.383Z,97592.88
2022-08-09T23:09:07.431Z,97595.59
2022-08-09T23:11:35.303Z,97589.88
2022-08-09T23:14:02.619Z,97586.88
2022-08-09T23:16:29.805Z,97599.09
2022-08-09T23:18:57.179Z,97602.75
2022-08-09T23:21:32.831Z,97588.53
2022-08-09T23:24:04.214Z,97593.66
2022-08-09T23:26:34.240Z,97593.19
2022-08-09T23:29:01.910Z,97586.38
2022-08-09T23:31:29.542Z,97591.97
2022-08-09T23:33:56.910Z,97589.47
2022-08-09T23:36:24.148Z,97586.38
2022-08-09T23:38:52.050Z,97590.16
2022-08-09T23:41:29.120Z,97585.16
2022-08-09T23:43:59.183Z,97589.22
2022-08-09T23:46:27.765Z,97581.69
2022-08-09T23:48:55.992Z,97584.53
2022-08-09T23:51:23.359Z,97580.25
2022-08-09T23:53:52.588Z,97576.16
2022-08-09T23:56:53.052Z,97580.81
2022-08-09T23:59:12.151Z,97574.63
